sensor_id;sensor_type;location;lat;lon;timestamp;P1;durP1;ratioP1;P2;durP2;ratioP2
54871;SDS011;43914;57.680;11.982;2023-03-01T00:02:20;3.80;;;1.20;;
54871;SDS011;43914;57.680;11.982;2023-03-01T00:04:46;4.60;;;1.30;;
54871;SDS011;43914;57.680;11.982;2023-03-01T00:07:11;5.20;;;1.50;;
54871;SDS011;43914;57.680;11.982;2023-03-01T00:09:37;4.50;;;1.30;;
54871;SDS011;43914;57.680;11.982;2023-03-01T00:12:03;4.30;;;1.40;;
54871;SDS011;43914;57.680;11.982;2023-03-01T00:14:29;5.00;;;1.50;;
54871;SDS011;43914;57.680;11.982;2023-03-01T00:16:54;5.10;;;1.30;;
54871;SDS011;43914;57.680;11.982;2023-03-01T00:19:20;4.80;;;1.50;;
54871;SDS011;43914;57.680;11.982;2023-03-01T00:21:50;4.50;;;1.30;;
54871;SDS011;43914;57.680;11.982;2023-03-01T00:24:15;5.80;;;1.60;;
54871;SDS011;43914;57.680;11.982;2023-03-01T00:26:41;6.90;;;1.80;;
54871;SDS011;43914;57.680;11.982;2023-03-01T00:29:08;6.00;;;1.80;;
54871;SDS011;43914;57.680;11.982;2023-03-01T00:31:33;5.90;;;1.60;;
54871;SDS011;43914;57.680;11.982;2023-03-01T00:34:00;7.10;;;1.80;;
54871;SDS011;43914;57.680;11.982;2023-03-01T00:36:28;7.50;;;1.90;;
54871;SDS011;43914;57.680;11.982;2023-03-01T00:38:56;6.70;;;2.40;;
54871;SDS011;43914;57.680;11.982;2023-03-01T00:41:22;9.90;;;3.00;;
54871;SDS011;43914;57.680;11.982;2023-03-01T00:43:48;8.60;;;3.40;;
54871;SDS011;43914;57.680;11.982;2023-03-01T00:46:25;8.70;;;3.20;;
54871;SDS011;43914;57.680;11.982;2023-03-01T00:48:51;8.80;;;3.20;;
54871;SDS011;43914;57.680;11.982;2023-03-01T00:51:19;9.60;;;3.40;;
54871;SDS011;43914;57.680;11.982;2023-03-01T00:53:47;7.40;;;3.10;;
54871;SDS011;43914;57.680;11.982;2023-03-01T00:56:15;8.20;;;3.10;;
54871;SDS011;43914;57.680;11.982;2023-03-01T00:58:41;9.40;;;3.80;;
54871;SDS011;43914;57.680;11.982;2023-03-01T01:01:10;10.20;;;3.20;;
54871;SDS011;43914;57.680;11.982;2023-03-01T01:03:57;8.90;;;3.20;;
54871;SDS011;43914;57.680;11.982;2023-03-01T01:06:26;7.90;;;2.90;;
54871;SDS011;43914;57.680;11.982;2023-03-01T01:08:57;9.20;;;3.30;;
54871;SDS011;43914;57.680;11.982;2023-03-01T01:11:24;9.80;;;3.00;;
54871;SDS011;43914;57.680;11.982;2023-03-01T01:13:52;9.10;;;3.40;;
54871;SDS011;43914;57.680;11.982;2023-03-01T01:16:19;11.20;;;3.30;;
54871;SDS011;43914;57.680;11.982;2023-03-01T01:18:46;9.90;;;3.20;;
54871;SDS011;43914;57.680;11.982;2023-03-01T01:21:13;8.70;;;3.20;;
54871;SDS011;43914;57.680;11.982;2023-03-01T01:23:40;9.80;;;3.60;;
54871;SDS011;43914;57.680;11.982;2023-03-01T01:26:08;10.00;;;3.80;;
54871;SDS011;43914;57.680;11.982;2023-03-01T01:28:36;10.30;;;3.40;;
54871;SDS011;43914;57.680;11.982;2023-03-01T01:31:03;9.90;;;3.40;;
54871;SDS011;43914;57.680;11.982;2023-03-01T01:33:29;8.00;;;2.40;;
54871;SDS011;43914;57.680;11.982;2023-03-01T01:35:55;6.20;;;2.10;;
54871;SDS011;43914;57.680;11.982;2023-03-01T01:38:20;9.10;;;3.00;;
54871;SDS011;43914;57.680;11.982;2023-03-01T01:40:46;10.40;;;3.20;;
54871;SDS011;43914;57.680;11.982;2023-03-01T01:43:24;10.20;;;3.30;;
54871;SDS011;43914;57.680;11.982;2023-03-01T01:45:56;8.80;;;3.00;;
54871;SDS011;43914;57.680;11.982;2023-03-01T01:48:29;10.00;;;3.30;;
54871;SDS011;43914;57.680;11.982;2023-03-01T01:51:05;9.30;;;3.30;;
54871;SDS011;43914;57.680;11.982;2023-03-01T01:53:38;7.80;;;3.10;;
54871;SDS011;43914;57.680;11.982;2023-03-01T01:56:05;9.80;;;2.70;;
54871;SDS011;43914;57.680;11.982;2023-03-01T01:58:34;7.10;;;2.20;;
54871;SDS011;43914;57.680;11.982;2023-03-01T02:01:01;6.20;;;2.30;;
54871;SDS011;43914;57.680;11.982;2023-03-01T02:03:29;5.70;;;1.90;;
54871;SDS011;43914;57.680;11.982;2023-03-01T02:08:31;6.20;;;1.80;;
54871;SDS011;43914;57.680;11.982;2023-03-01T02:11:00;6.30;;;1.80;;
54871;SDS011;43914;57.680;11.982;2023-03-01T02:13:28;6.80;;;1.80;;
54871;SDS011;43914;57.680;11.982;2023-03-01T02:15:56;5.50;;;1.70;;
54871;SDS011;43914;57.680;11.982;2023-03-01T02:18:22;5.20;;;1.80;;
54871;SDS011;43914;57.680;11.982;2023-03-01T02:23:28;5.80;;;1.60;;
54871;SDS011;43914;57.680;11.982;2023-03-01T02:25:58;5.80;;;1.70;;
54871;SDS011;43914;57.680;11.982;2023-03-01T02:28:35;6.70;;;2.00;;
54871;SDS011;43914;57.680;11.982;2023-03-01T02:31:03;7.00;;;2.40;;
54871;SDS011;43914;57.680;11.982;2023-03-01T02:33:50;6.50;;;2.10;;
54871;SDS011;43914;57.680;11.982;2023-03-01T02:36:25;7.00;;;2.20;;
54871;SDS011;43914;57.680;11.982;2023-03-01T02:38:56;8.50;;;2.40;;
54871;SDS011;43914;57.680;11.982;2023-03-01T02:41:23;9.30;;;2.60;;
54871;SDS011;43914;57.680;11.982;2023-03-01T02:43:51;7.10;;;2.20;;
54871;SDS011;43914;57.680;11.982;2023-03-01T02:46:18;8.90;;;2.30;;
54871;SDS011;43914;57.680;11.982;2023-03-01T02:48:48;6.70;;;2.30;;
54871;SDS011;43914;57.680;11.982;2023-03-01T02:56:40;6.30;;;2.20;;
54871;SDS011;43914;57.680;11.982;2023-03-01T02:59:06;9.20;;;2.40;;
54871;SDS011;43914;57.680;11.982;2023-03-01T03:01:33;6.60;;;2.20;;
54871;SDS011;43914;57.680;11.982;2023-03-01T03:04:05;8.20;;;2.70;;
54871;SDS011;43914;57.680;11.982;2023-03-01T03:06:33;8.70;;;3.30;;
54871;SDS011;43914;57.680;11.982;2023-03-01T03:08:59;7.90;;;2.30;;
54871;SDS011;43914;57.680;11.982;2023-03-01T03:11:25;7.30;;;2.30;;
54871;SDS011;43914;57.680;11.982;2023-03-01T03:13:51;9.50;;;2.40;;
54871;SDS011;43914;57.680;11.982;2023-03-01T03:16:17;8.00;;;2.40;;
54871;SDS011;43914;57.680;11.982;2023-03-01T03:18:43;8.80;;;2.50;;
54871;SDS011;43914;57.680;11.982;2023-03-01T03:21:09;8.50;;;2.50;;
54871;SDS011;43914;57.680;11.982;2023-03-01T03:23:36;9.00;;;2.60;;
54871;SDS011;43914;57.680;11.982;2023-03-01T03:26:03;6.80;;;2.50;;
54871;SDS011;43914;57.680;11.982;2023-03-01T03:28:30;8.60;;;2.50;;
54871;SDS011;43914;57.680;11.982;2023-03-01T03:30:56;7.60;;;2.40;;
54871;SDS011;43914;57.680;11.982;2023-03-01T03:33:24;7.60;;;2.30;;
54871;SDS011;43914;57.680;11.982;2023-03-01T03:35:49;5.90;;;1.80;;
54871;SDS011;43914;57.680;11.982;2023-03-01T03:38:16;6.40;;;2.10;;
54871;SDS011;43914;57.680;11.982;2023-03-01T03:40:48;5.80;;;1.80;;
54871;SDS011;43914;57.680;11.982;2023-03-01T03:43:22;6.60;;;1.90;;
54871;SDS011;43914;57.680;11.982;2023-03-01T03:45:49;5.10;;;1.50;;
54871;SDS011;43914;57.680;11.982;2023-03-01T03:48:15;5.50;;;1.70;;
54871;SDS011;43914;57.680;11.982;2023-03-01T03:50:46;5.70;;;1.80;;
54871;SDS011;43914;57.680;11.982;2023-03-01T03:53:14;10.10;;;2.00;;
54871;SDS011;43914;57.680;11.982;2023-03-01T03:55:40;8.10;;;2.30;;
54871;SDS011;43914;57.680;11.982;2023-03-01T03:58:07;6.30;;;2.20;;
54871;SDS011;43914;57.680;11.982;2023-03-01T04:00:38;6.90;;;2.50;;
54871;SDS011;43914;57.680;11.982;2023-03-01T04:03:05;9.60;;;2.80;;
54871;SDS011;43914;57.680;11.982;2023-03-01T04:05:32;8.20;;;3.00;;
54871;SDS011;43914;57.680;11.982;2023-03-01T04:07:58;6.40;;;2.40;;
54871;SDS011;43914;57.680;11.982;2023-03-01T04:10:30;7.60;;;2.70;;
54871;SDS011;43914;57.680;11.982;2023-03-01T04:12:58;8.70;;;2.90;;
54871;SDS011;43914;57.680;11.982;2023-03-01T04:15:24;7.50;;;2.70;;
54871;SDS011;43914;57.680;11.982;2023-03-01T04:17:51;10.20;;;3.20;;
54871;SDS011;43914;57.680;11.982;2023-03-01T04:20:20;11.30;;;3.10;;
54871;SDS011;43914;57.680;11.982;2023-03-01T04:22:57;8.00;;;3.20;;
54871;SDS011;43914;57.680;11.982;2023-03-01T04:25:24;8.10;;;2.70;;
54871;SDS011;43914;57.680;11.982;2023-03-01T04:27:50;11.70;;;3.00;;
54871;SDS011;43914;57.680;11.982;2023-03-01T04:30:16;8.70;;;2.40;;
54871;SDS011;43914;57.680;11.982;2023-03-01T04:32:44;7.60;;;2.60;;
54871;SDS011;43914;57.680;11.982;2023-03-01T04:35:10;7.30;;;2.30;;
54871;SDS011;43914;57.680;11.982;2023-03-01T04:37:35;6.10;;;2.10;;
54871;SDS011;43914;57.680;11.982;2023-03-01T04:40:02;6.30;;;2.00;;
54871;SDS011;43914;57.680;11.982;2023-03-01T04:42:41;8.80;;;2.40;;
54871;SDS011;43914;57.680;11.982;2023-03-01T04:45:08;6.80;;;2.30;;
54871;SDS011;43914;57.680;11.982;2023-03-01T04:47:41;7.00;;;1.90;;
54871;SDS011;43914;57.680;11.982;2023-03-01T04:50:10;6.70;;;1.90;;
54871;SDS011;43914;57.680;11.982;2023-03-01T04:52:37;5.80;;;1.80;;
54871;SDS011;43914;57.680;11.982;2023-03-01T04:55:03;7.20;;;2.00;;
54871;SDS011;43914;57.680;11.982;2023-03-01T04:57:29;6.70;;;2.00;;
54871;SDS011;43914;57.680;11.982;2023-03-01T04:59:55;5.80;;;1.70;;
54871;SDS011;43914;57.680;11.982;2023-03-01T05:02:21;6.80;;;1.70;;
54871;SDS011;43914;57.680;11.982;2023-03-01T05:04:46;6.10;;;1.50;;
54871;SDS011;43914;57.680;11.982;2023-03-01T05:07:12;5.50;;;1.70;;
54871;SDS011;43914;57.680;11.982;2023-03-01T05:09:38;5.70;;;1.70;;
54871;SDS011;43914;57.680;11.982;2023-03-01T05:12:04;5.00;;;1.60;;
54871;SDS011;43914;57.680;11.982;2023-03-01T05:14:29;5.70;;;1.70;;
54871;SDS011;43914;57.680;11.982;2023-03-01T05:16:55;4.90;;;1.70;;
54871;SDS011;43914;57.680;11.982;2023-03-01T05:19:29;5.60;;;1.80;;
54871;SDS011;43914;57.680;11.982;2023-03-01T05:21:56;5.60;;;1.70;;
54871;SDS011;43914;57.680;11.982;2023-03-01T05:24:32;5.80;;;1.70;;
54871;SDS011;43914;57.680;11.982;2023-03-01T05:27:00;6.50;;;1.50;;
54871;SDS011;43914;57.680;11.982;2023-03-01T05:29:27;4.90;;;1.40;;
54871;SDS011;43914;57.680;11.982;2023-03-01T05:31:58;6.10;;;1.40;;
54871;SDS011;43914;57.680;11.982;2023-03-01T05:34:26;5.50;;;1.30;;
54871;SDS011;43914;57.680;11.982;2023-03-01T05:36:53;4.80;;;1.40;;
54871;SDS011;43914;57.680;11.982;2023-03-01T05:39:23;5.00;;;1.50;;
54871;SDS011;43914;57.680;11.982;2023-03-01T05:41:57;4.60;;;1.30;;
54871;SDS011;43914;57.680;11.982;2023-03-01T05:44:25;4.20;;;1.10;;
54871;SDS011;43914;57.680;11.982;2023-03-01T05:46:51;3.20;;;1.10;;
54871;SDS011;43914;57.680;11.982;2023-03-01T05:49:17;4.30;;;1.30;;
54871;SDS011;43914;57.680;11.982;2023-03-01T05:51:43;4.10;;;1.20;;
54871;SDS011;43914;57.680;11.982;2023-03-01T05:54:12;4.60;;;1.20;;
54871;SDS011;43914;57.680;11.982;2023-03-01T05:56:38;4.00;;;1.20;;
54871;SDS011;43914;57.680;11.982;2023-03-01T05:59:04;4.60;;;1.20;;
54871;SDS011;43914;57.680;11.982;2023-03-01T06:01:31;4.30;;;1.10;;
54871;SDS011;43914;57.680;11.982;2023-03-01T06:03:57;5.00;;;1.20;;
54871;SDS011;43914;57.680;11.982;2023-03-01T06:06:23;4.20;;;1.30;;
54871;SDS011;43914;57.680;11.982;2023-03-01T06:08:49;4.20;;;1.30;;
54871;SDS011;43914;57.680;11.982;2023-03-01T06:11:16;6.60;;;1.50;;
54871;SDS011;43914;57.680;11.982;2023-03-01T06:13:42;5.50;;;1.50;;
54871;SDS011;43914;57.680;11.982;2023-03-01T06:16:09;4.00;;;1.20;;
54871;SDS011;43914;57.680;11.982;2023-03-01T06:18:35;5.30;;;1.30;;
54871;SDS011;43914;57.680;11.982;2023-03-01T06:21:02;5.30;;;1.60;;
54871;SDS011;43914;57.680;11.982;2023-03-01T06:23:28;6.20;;;1.60;;
54871;SDS011;43914;57.680;11.982;2023-03-01T06:25:54;9.50;;;2.10;;
54871;SDS011;43914;57.680;11.982;2023-03-01T06:28:19;7.40;;;2.30;;
54871;SDS011;43914;57.680;11.982;2023-03-01T06:30:45;9.50;;;2.60;;
54871;SDS011;43914;57.680;11.982;2023-03-01T06:33:11;6.70;;;1.90;;
54871;SDS011;43914;57.680;11.982;2023-03-01T06:35:37;10.50;;;2.30;;
54871;SDS011;43914;57.680;11.982;2023-03-01T06:38:05;7.70;;;2.10;;
54871;SDS011;43914;57.680;11.982;2023-03-01T06:40:31;6.50;;;2.00;;
54871;SDS011;43914;57.680;11.982;2023-03-01T06:42:57;6.90;;;1.80;;
54871;SDS011;43914;57.680;11.982;2023-03-01T06:45:24;7.70;;;2.10;;
54871;SDS011;43914;57.680;11.982;2023-03-01T06:47:50;6.30;;;2.10;;
54871;SDS011;43914;57.680;11.982;2023-03-01T06:50:16;7.00;;;2.10;;
54871;SDS011;43914;57.680;11.982;2023-03-01T06:52:43;7.60;;;2.10;;
54871;SDS011;43914;57.680;11.982;2023-03-01T06:55:10;8.10;;;2.20;;
54871;SDS011;43914;57.680;11.982;2023-03-01T06:57:37;8.30;;;2.00;;
54871;SDS011;43914;57.680;11.982;2023-03-01T07:00:05;9.30;;;2.30;;
54871;SDS011;43914;57.680;11.982;2023-03-01T07:02:32;5.30;;;1.50;;
54871;SDS011;43914;57.680;11.982;2023-03-01T07:04:57;6.70;;;1.70;;
54871;SDS011;43914;57.680;11.982;2023-03-01T07:07:23;6.40;;;1.60;;
54871;SDS011;43914;57.680;11.982;2023-03-01T07:09:49;6.40;;;1.70;;
54871;SDS011;43914;57.680;11.982;2023-03-01T07:12:15;7.50;;;1.70;;
54871;SDS011;43914;57.680;11.982;2023-03-01T07:14:41;6.20;;;1.60;;
54871;SDS011;43914;57.680;11.982;2023-03-01T07:17:09;6.50;;;1.60;;
54871;SDS011;43914;57.680;11.982;2023-03-01T07:19:34;5.60;;;1.70;;
54871;SDS011;43914;57.680;11.982;2023-03-01T07:22:00;7.10;;;1.80;;
54871;SDS011;43914;57.680;11.982;2023-03-01T07:24:26;7.20;;;1.70;;
54871;SDS011;43914;57.680;11.982;2023-03-01T07:26:51;5.70;;;1.60;;
54871;SDS011;43914;57.680;11.982;2023-03-01T07:29:18;5.20;;;1.50;;
54871;SDS011;43914;57.680;11.982;2023-03-01T07:31:44;4.30;;;1.30;;
54871;SDS011;43914;57.680;11.982;2023-03-01T07:34:10;5.80;;;1.50;;
54871;SDS011;43914;57.680;11.982;2023-03-01T07:36:36;6.60;;;1.50;;
54871;SDS011;43914;57.680;11.982;2023-03-01T07:39:02;5.50;;;1.50;;
54871;SDS011;43914;57.680;11.982;2023-03-01T07:41:28;6.10;;;1.70;;
54871;SDS011;43914;57.680;11.982;2023-03-01T07:43:54;5.20;;;1.70;;
54871;SDS011;43914;57.680;11.982;2023-03-01T07:46:20;5.80;;;1.40;;
54871;SDS011;43914;57.680;11.982;2023-03-01T07:48:46;5.70;;;1.70;;
54871;SDS011;43914;57.680;11.982;2023-03-01T07:51:12;4.60;;;1.40;;
54871;SDS011;43914;57.680;11.982;2023-03-01T07:53:38;6.00;;;1.60;;
54871;SDS011;43914;57.680;11.982;2023-03-01T07:56:04;5.50;;;1.20;;
54871;SDS011;43914;57.680;11.982;2023-03-01T07:58:34;9.60;;;1.50;;
54871;SDS011;43914;57.680;11.982;2023-03-01T08:01:02;5.00;;;1.50;;
54871;SDS011;43914;57.680;11.982;2023-03-01T08:03:29;3.40;;;1.10;;
54871;SDS011;43914;57.680;11.982;2023-03-01T08:05:55;5.40;;;1.50;;
54871;SDS011;43914;57.680;11.982;2023-03-01T08:08:28;5.90;;;1.40;;
54871;SDS011;43914;57.680;11.982;2023-03-01T08:11:00;5.60;;;1.50;;
54871;SDS011;43914;57.680;11.982;2023-03-01T08:13:28;6.00;;;1.40;;
54871;SDS011;43914;57.680;11.982;2023-03-01T08:15:54;6.00;;;1.40;;
54871;SDS011;43914;57.680;11.982;2023-03-01T08:18:20;3.90;;;1.10;;
54871;SDS011;43914;57.680;11.982;2023-03-01T08:20:46;6.40;;;1.40;;
54871;SDS011;43914;57.680;11.982;2023-03-01T08:23:13;5.70;;;1.20;;
54871;SDS011;43914;57.680;11.982;2023-03-01T08:25:38;5.00;;;1.40;;
54871;SDS011;43914;57.680;11.982;2023-03-01T08:28:04;3.90;;;1.10;;
54871;SDS011;43914;57.680;11.982;2023-03-01T08:30:30;3.80;;;1.20;;
54871;SDS011;43914;57.680;11.982;2023-03-01T08:32:58;4.60;;;1.20;;
54871;SDS011;43914;57.680;11.982;2023-03-01T08:35:23;4.70;;;1.10;;
54871;SDS011;43914;57.680;11.982;2023-03-01T08:37:49;3.80;;;1.00;;
54871;SDS011;43914;57.680;11.982;2023-03-01T08:40:14;5.50;;;1.10;;
54871;SDS011;43914;57.680;11.982;2023-03-01T08:42:40;3.30;;;1.00;;
54871;SDS011;43914;57.680;11.982;2023-03-01T08:45:08;3.80;;;1.10;;
54871;SDS011;43914;57.680;11.982;2023-03-01T08:47:35;3.00;;;1.00;;
54871;SDS011;43914;57.680;11.982;2023-03-01T08:50:01;3.50;;;1.00;;
54871;SDS011;43914;57.680;11.982;2023-03-01T08:52:28;3.50;;;1.00;;
54871;SDS011;43914;57.680;11.982;2023-03-01T08:54:55;3.40;;;1.10;;
54871;SDS011;43914;57.680;11.982;2023-03-01T08:57:21;2.60;;;0.90;;
54871;SDS011;43914;57.680;11.982;2023-03-01T08:59:47;3.60;;;1.00;;
54871;SDS011;43914;57.680;11.982;2023-03-01T09:02:13;3.90;;;1.00;;
54871;SDS011;43914;57.680;11.982;2023-03-01T09:04:41;3.40;;;0.90;;
54871;SDS011;43914;57.680;11.982;2023-03-01T09:07:06;3.00;;;0.90;;
54871;SDS011;43914;57.680;11.982;2023-03-01T09:09:33;3.80;;;1.00;;
54871;SDS011;43914;57.680;11.982;2023-03-01T09:11:58;5.20;;;1.10;;
54871;SDS011;43914;57.680;11.982;2023-03-01T09:14:24;2.40;;;0.70;;
54871;SDS011;43914;57.680;11.982;2023-03-01T09:16:49;4.40;;;1.00;;
54871;SDS011;43914;57.680;11.982;2023-03-01T09:19:15;3.40;;;0.90;;
54871;SDS011;43914;57.680;11.982;2023-03-01T09:21:41;4.20;;;1.00;;
54871;SDS011;43914;57.680;11.982;2023-03-01T09:24:17;2.60;;;0.80;;
54871;SDS011;43914;57.680;11.982;2023-03-01T09:26:45;5.50;;;1.00;;
54871;SDS011;43914;57.680;11.982;2023-03-01T09:29:14;3.80;;;0.90;;
54871;SDS011;43914;57.680;11.982;2023-03-01T09:31:40;3.60;;;0.90;;
54871;SDS011;43914;57.680;11.982;2023-03-01T09:34:06;2.70;;;0.80;;
54871;SDS011;43914;57.680;11.982;2023-03-01T09:36:35;4.90;;;1.00;;
54871;SDS011;43914;57.680;11.982;2023-03-01T09:39:01;4.30;;;1.00;;
54871;SDS011;43914;57.680;11.982;2023-03-01T09:44:35;4.10;;;0.90;;
54871;SDS011;43914;57.680;11.982;2023-03-01T09:47:12;3.20;;;1.00;;
54871;SDS011;43914;57.680;11.982;2023-03-01T09:49:44;4.70;;;0.90;;
54871;SDS011;43914;57.680;11.982;2023-03-01T09:54:54;2.20;;;0.70;;
54871;SDS011;43914;57.680;11.982;2023-03-01T10:10:27;4.30;;;1.00;;
54871;SDS011;43914;57.680;11.982;2023-03-01T10:12:56;3.90;;;0.90;;
54871;SDS011;43914;57.680;11.982;2023-03-01T10:15:25;5.70;;;1.00;;
54871;SDS011;43914;57.680;11.982;2023-03-01T10:18:02;2.40;;;0.70;;
54871;SDS011;43914;57.680;11.982;2023-03-01T10:20:54;3.80;;;0.90;;
54871;SDS011;43914;57.680;11.982;2023-03-01T10:23:33;3.80;;;0.90;;
54871;SDS011;43914;57.680;11.982;2023-03-01T10:28:47;2.70;;;0.80;;
54871;SDS011;43914;57.680;11.982;2023-03-01T10:31:23;3.20;;;0.80;;
54871;SDS011;43914;57.680;11.982;2023-03-01T10:33:54;4.80;;;1.10;;
54871;SDS011;43914;57.680;11.982;2023-03-01T10:36:22;2.60;;;0.80;;
54871;SDS011;43914;57.680;11.982;2023-03-01T10:41:19;3.80;;;0.80;;
54871;SDS011;43914;57.680;11.982;2023-03-01T10:43:50;3.30;;;0.90;;
54871;SDS011;43914;57.680;11.982;2023-03-01T10:51:44;3.90;;;1.00;;
54871;SDS011;43914;57.680;11.982;2023-03-01T10:54:28;2.90;;;0.80;;
54871;SDS011;43914;57.680;11.982;2023-03-01T10:56:57;6.10;;;0.90;;
54871;SDS011;43914;57.680;11.982;2023-03-01T11:02:40;2.70;;;0.90;;
54871;SDS011;43914;57.680;11.982;2023-03-01T11:05:13;8.00;;;1.10;;
54871;SDS011;43914;57.680;11.982;2023-03-01T11:07:58;4.80;;;1.10;;
54871;SDS011;43914;57.680;11.982;2023-03-01T11:10:26;3.80;;;0.90;;
54871;SDS011;43914;57.680;11.982;2023-03-01T11:13:05;4.10;;;0.90;;
54871;SDS011;43914;57.680;11.982;2023-03-01T11:15:34;6.10;;;1.10;;
54871;SDS011;43914;57.680;11.982;2023-03-01T11:18:01;3.50;;;0.80;;
54871;SDS011;43914;57.680;11.982;2023-03-01T11:20:34;4.10;;;1.00;;
54871;SDS011;43914;57.680;11.982;2023-03-01T11:23:04;3.00;;;0.70;;
54871;SDS011;43914;57.680;11.982;2023-03-01T11:28:03;4.10;;;0.70;;
54871;SDS011;43914;57.680;11.982;2023-03-01T11:39:02;5.90;;;1.10;;
54871;SDS011;43914;57.680;11.982;2023-03-01T11:41:37;5.00;;;0.90;;
54871;SDS011;43914;57.680;11.982;2023-03-01T12:00:58;6.30;;;0.90;;
54871;SDS011;43914;57.680;11.982;2023-03-01T12:11:39;5.10;;;1.00;;
54871;SDS011;43914;57.680;11.982;2023-03-01T12:19:44;3.60;;;0.80;;
54871;SDS011;43914;57.680;11.982;2023-03-01T12:36:10;4.60;;;0.80;;
54871;SDS011;43914;57.680;11.982;2023-03-01T12:38:32;4.80;;;1.00;;
54871;SDS011;43914;57.680;11.982;2023-03-01T12:55:31;2.70;;;0.60;;
54871;SDS011;43914;57.680;11.982;2023-03-01T13:00:36;5.20;;;1.00;;
54871;SDS011;43914;57.680;11.982;2023-03-01T13:03:14;4.70;;;0.80;;
54871;SDS011;43914;57.680;11.982;2023-03-01T13:11:31;4.40;;;0.70;;
54871;SDS011;43914;57.680;11.982;2023-03-01T13:14:45;3.70;;;0.60;;
54871;SDS011;43914;57.680;11.982;2023-03-01T13:16:45;4.00;;;0.60;;
54871;SDS011;43914;57.680;11.982;2023-03-01T13:19:21;1.30;;;0.50;;
54871;SDS011;43914;57.680;11.982;2023-03-01T13:21:57;2.80;;;0.50;;
54871;SDS011;43914;57.680;11.982;2023-03-01T13:29:43;6.30;;;0.80;;
54871;SDS011;43914;57.680;11.982;2023-03-01T13:37:51;4.10;;;0.70;;
54871;SDS011;43914;57.680;11.982;2023-03-01T13:42:46;5.30;;;0.80;;
54871;SDS011;43914;57.680;11.982;2023-03-01T13:47:45;3.70;;;0.70;;
54871;SDS011;43914;57.680;11.982;2023-03-01T13:50:18;3.50;;;0.60;;
54871;SDS011;43914;57.680;11.982;2023-03-01T13:55:24;3.50;;;0.60;;
54871;SDS011;43914;57.680;11.982;2023-03-01T13:57:55;5.60;;;0.80;;
54871;SDS011;43914;57.680;11.982;2023-03-01T14:00:25;4.40;;;0.90;;
54871;SDS011;43914;57.680;11.982;2023-03-01T14:03:09;3.60;;;0.90;;
54871;SDS011;43914;57.680;11.982;2023-03-01T14:05:40;3.70;;;0.90;;
54871;SDS011;43914;57.680;11.982;2023-03-01T14:08:40;2.30;;;0.70;;
54871;SDS011;43914;57.680;11.982;2023-03-01T14:19:26;5.40;;;0.80;;
54871;SDS011;43914;57.680;11.982;2023-03-01T14:24:28;6.30;;;1.00;;
54871;SDS011;43914;57.680;11.982;2023-03-01T14:26:57;5.60;;;0.80;;
54871;SDS011;43914;57.680;11.982;2023-03-01T14:29:37;4.30;;;0.80;;
54871;SDS011;43914;57.680;11.982;2023-03-01T14:32:17;4.40;;;0.80;;
54871;SDS011;43914;57.680;11.982;2023-03-01T14:34:46;4.70;;;0.70;;
54871;SDS011;43914;57.680;11.982;2023-03-01T14:37:24;3.10;;;0.80;;
54871;SDS011;43914;57.680;11.982;2023-03-01T14:39:52;2.10;;;0.70;;
54871;SDS011;43914;57.680;11.982;2023-03-01T14:42:18;3.40;;;0.70;;
54871;SDS011;43914;57.680;11.982;2023-03-01T14:44:47;2.30;;;0.60;;
54871;SDS011;43914;57.680;11.982;2023-03-01T14:47:19;7.30;;;0.90;;
54871;SDS011;43914;57.680;11.982;2023-03-01T14:49:49;2.20;;;0.70;;
54871;SDS011;43914;57.680;11.982;2023-03-01T14:52:24;2.10;;;0.50;;
54871;SDS011;43914;57.680;11.982;2023-03-01T14:54:56;3.30;;;0.70;;
54871;SDS011;43914;57.680;11.982;2023-03-01T14:57:23;4.00;;;0.70;;
54871;SDS011;43914;57.680;11.982;2023-03-01T14:59:54;1.50;;;0.40;;
54871;SDS011;43914;57.680;11.982;2023-03-01T15:02:23;1.40;;;0.50;;
54871;SDS011;43914;57.680;11.982;2023-03-01T15:04:58;4.20;;;0.60;;
54871;SDS011;43914;57.680;11.982;2023-03-01T15:07:27;3.00;;;0.60;;
54871;SDS011;43914;57.680;11.982;2023-03-01T15:09:56;2.50;;;0.50;;
54871;SDS011;43914;57.680;11.982;2023-03-01T15:15:19;2.10;;;0.60;;
54871;SDS011;43914;57.680;11.982;2023-03-01T15:17:51;5.10;;;0.70;;
54871;SDS011;43914;57.680;11.982;2023-03-01T15:20:20;3.20;;;0.70;;
54871;SDS011;43914;57.680;11.982;2023-03-01T15:22:51;9.20;;;0.90;;
54871;SDS011;43914;57.680;11.982;2023-03-01T15:25:24;2.70;;;0.60;;
54871;SDS011;43914;57.680;11.982;2023-03-01T15:27:52;4.40;;;0.60;;
54871;SDS011;43914;57.680;11.982;2023-03-01T15:35:45;2.40;;;0.70;;
54871;SDS011;43914;57.680;11.982;2023-03-01T15:41:29;2.50;;;0.60;;
54871;SDS011;43914;57.680;11.982;2023-03-01T15:43:58;5.10;;;0.80;;
54871;SDS011;43914;57.680;11.982;2023-03-01T15:46:29;4.50;;;0.50;;
54871;SDS011;43914;57.680;11.982;2023-03-01T15:51:52;4.60;;;0.90;;
54871;SDS011;43914;57.680;11.982;2023-03-01T15:54:21;4.30;;;0.80;;
54871;SDS011;43914;57.680;11.982;2023-03-01T15:56:48;4.00;;;0.60;;
54871;SDS011;43914;57.680;11.982;2023-03-01T15:59:15;4.50;;;1.00;;
54871;SDS011;43914;57.680;11.982;2023-03-01T16:01:42;6.60;;;1.00;;
54871;SDS011;43914;57.680;11.982;2023-03-01T16:04:09;10.00;;;1.40;;
54871;SDS011;43914;57.680;11.982;2023-03-01T16:06:41;7.10;;;1.30;;
54871;SDS011;43914;57.680;11.982;2023-03-01T16:09:07;9.20;;;1.20;;
54871;SDS011;43914;57.680;11.982;2023-03-01T16:11:33;14.20;;;1.40;;
54871;SDS011;43914;57.680;11.982;2023-03-01T16:14:01;7.40;;;1.30;;
54871;SDS011;43914;57.680;11.982;2023-03-01T16:16:27;8.30;;;1.10;;
54871;SDS011;43914;57.680;11.982;2023-03-01T16:18:53;6.30;;;1.20;;
54871;SDS011;43914;57.680;11.982;2023-03-01T16:21:22;12.60;;;1.20;;
54871;SDS011;43914;57.680;11.982;2023-03-01T16:23:50;9.70;;;1.10;;
54871;SDS011;43914;57.680;11.982;2023-03-01T16:26:16;7.80;;;0.90;;
54871;SDS011;43914;57.680;11.982;2023-03-01T16:28:43;9.70;;;1.10;;
54871;SDS011;43914;57.680;11.982;2023-03-01T16:31:10;6.10;;;0.90;;
54871;SDS011;43914;57.680;11.982;2023-03-01T16:33:37;5.50;;;1.00;;
54871;SDS011;43914;57.680;11.982;2023-03-01T16:36:06;7.60;;;1.10;;
54871;SDS011;43914;57.680;11.982;2023-03-01T16:38:34;4.70;;;0.80;;
54871;SDS011;43914;57.680;11.982;2023-03-01T16:41:00;9.20;;;1.30;;
54871;SDS011;43914;57.680;11.982;2023-03-01T16:43:26;5.20;;;1.00;;
54871;SDS011;43914;57.680;11.982;2023-03-01T16:45:52;12.10;;;2.20;;
54871;SDS011;43914;57.680;11.982;2023-03-01T16:48:18;5.50;;;1.10;;
54871;SDS011;43914;57.680;11.982;2023-03-01T16:50:43;8.50;;;1.20;;
54871;SDS011;43914;57.680;11.982;2023-03-01T16:53:09;4.10;;;0.90;;
54871;SDS011;43914;57.680;11.982;2023-03-01T16:55:35;8.50;;;1.20;;
54871;SDS011;43914;57.680;11.982;2023-03-01T16:58:00;4.70;;;1.00;;
54871;SDS011;43914;57.680;11.982;2023-03-01T17:00:27;6.30;;;1.20;;
54871;SDS011;43914;57.680;11.982;2023-03-01T17:02:53;6.40;;;1.00;;
54871;SDS011;43914;57.680;11.982;2023-03-01T17:05:19;2.70;;;0.90;;
54871;SDS011;43914;57.680;11.982;2023-03-01T17:07:46;4.30;;;1.10;;
54871;SDS011;43914;57.680;11.982;2023-03-01T17:10:11;5.80;;;1.00;;
54871;SDS011;43914;57.680;11.982;2023-03-01T17:12:37;6.80;;;1.10;;
54871;SDS011;43914;57.680;11.982;2023-03-01T17:15:03;5.70;;;0.90;;
54871;SDS011;43914;57.680;11.982;2023-03-01T17:17:30;3.30;;;0.90;;
54871;SDS011;43914;57.680;11.982;2023-03-01T17:19:56;3.40;;;1.00;;
54871;SDS011;43914;57.680;11.982;2023-03-01T17:22:21;3.40;;;1.00;;
54871;SDS011;43914;57.680;11.982;2023-03-01T17:24:47;5.30;;;1.10;;
54871;SDS011;43914;57.680;11.982;2023-03-01T17:27:12;3.30;;;0.90;;